Time;durP1;ratioP1;P1;durP2;ratioP2;P2;SDS_P1;SDS_P2;PMS_P1;PMS_P2;Temp;Humidity;BMP_temperature;BMP_pressure;BME280_temperature;BME280_humidity;BME280_pressure;Samples;Min_cycle;Max_cycle;Signal;HPM_P1;HPM_P2
2022/01/09 00:00:11;;;;;;;58.97;13.85;;;;;;;4.08;100.00;99769.75;5075089;28;20053;-52
2022/01/09 00:02:41;;;;;;;68.63;15.40;;;;;;;4.00;100.00;99771.88;5075394;28;20063;-50
2022/01/09 00:05:11;;;;;;;54.75;12.95;;;;;;;3.96;100.00;99770.31;5076233;28;20056;-53
2022/01/09 00:07:39;;;;;;;44.05;8.63;;;;;;;3.88;100.00;99782.94;5074783;28;20056;-49
2022/01/09 00:10:09;;;;;;;46.63;12.10;;;;;;;3.82;100.00;99788.47;5075531;28;20059;-50
2022/01/09 00:12:37;;;;;;;36.60;7.63;;;;;;;3.88;100.00;99777.69;5075074;28;20056;-48
2022/01/09 00:15:07;;;;;;;37.50;6.53;;;;;;;3.99;100.00;99793.78;5075746;28;20059;-51
2022/01/09 00:17:36;;;;;;;77.82;16.92;;;;;;;4.00;100.00;99789.38;5074769;28;20057;-51
2022/01/09 00:20:08;;;;;;;46.25;13.25;;;;;;;3.95;100.00;99794.00;5075856;28;20080;-49
2022/01/09 00:22:40;;;;;;;66.55;16.55;;;;;;;3.96;100.00;99793.94;5074767;28;20056;-51
2022/01/09 00:25:09;;;;;;;29.23;5.45;;;;;;;4.18;100.00;99806.06;5073756;28;20059;-50
2022/01/09 00:27:37;;;;;;;41.33;9.07;;;;;;;4.34;100.00;99799.16;5074910;28;20057;-49
2022/01/09 00:30:07;;;;;;;42.05;8.30;;;;;;;4.51;100.00;99808.03;5074905;28;20052;-50
2022/01/09 00:32:35;;;;;;;31.25;6.72;;;;;;;4.49;100.00;99801.97;5074734;28;20070;-50
2022/01/09 00:35:06;;;;;;;27.08;5.40;;;;;;;4.39;100.00;99783.19;5074213;28;20056;-50
2022/01/09 00:37:35;;;;;;;55.17;13.47;;;;;;;4.33;100.00;99786.94;5074505;28;20057;-51
2022/01/09 00:40:04;;;;;;;39.88;9.27;;;;;;;4.24;100.00;99792.66;5074677;28;20287;-50
2022/01/09 00:42:33;;;;;;;46.72;10.38;;;;;;;4.24;100.00;99787.41;5074323;28;20060;-48
2022/01/09 00:45:01;;;;;;;60.65;12.70;;;;;;;4.17;100.00;99773.72;5074417;28;20500;-50
2022/01/09 00:47:29;;;;;;;34.13;9.48;;;;;;;4.22;100.00;99779.59;5074319;28;20056;-50
2022/01/09 00:49:58;;;;;;;24.80;4.25;;;;;;;4.31;100.00;99785.34;5074836;28;20053;-50
2022/01/09 00:52:27;;;;;;;24.58;5.75;;;;;;;4.32;100.00;99766.88;5074178;28;20063;-49
2022/01/09 00:54:56;;;;;;;21.48;4.45;;;;;;;4.31;100.00;99770.44;5074830;28;20052;-50
2022/01/09 00:57:24;;;;;;;12.98;4.32;;;;;;;4.31;100.00;99770.44;5075345;28;20391;-48
2022/01/09 00:59:52;;;;;;;17.48;3.97;;;;;;;4.34;100.00;99772.91;5074176;28;20543;-50
2022/01/09 01:02:20;;;;;;;27.95;7.70;;;;;;;4.36;100.00;99778.94;5074763;28;20057;-51
2022/01/09 01:04:51;;;;;;;25.40;4.78;;;;;;;4.45;100.00;99778.50;5074967;28;20052;-51
2022/01/09 01:07:20;;;;;;;28.83;7.83;;;;;;;4.44;100.00;99787.28;5074075;28;20139;-49
2022/01/09 01:09:49;;;;;;;20.42;4.35;;;;;;;4.57;100.00;99789.31;5074766;28;20306;-50
2022/01/09 01:12:18;;;;;;;16.15;4.00;;;;;;;4.57;100.00;99786.69;5073997;28;20074;-51
2022/01/09 01:14:46;;;;;;;30.95;8.15;;;;;;;4.67;100.00;99787.94;5074654;28;20048;-50
2022/01/09 01:17:15;;;;;;;21.58;4.65;;;;;;;4.73;100.00;99806.03;5075361;28;20455;-51
2022/01/09 01:19:44;;;;;;;17.85;2.45;;;;;;;4.82;100.00;99824.00;5073918;28;20558;-48
2022/01/09 01:22:30;;;;;;;28.55;5.80;;;;;;;4.77;100.00;99836.47;5074545;28;20129;-50
2022/01/09 01:25:00;;;;;;;17.02;3.80;;;;;;;4.74;100.00;99835.78;5074724;28;20060;-49
2022/01/09 01:27:29;;;;;;;19.88;4.38;;;;;;;4.66;100.00;99833.53;5075131;28;20409;-50
2022/01/09 01:29:57;;;;;;;18.27;2.60;;;;;;;4.66;100.00;99830.91;5073893;28;20060;-48
2022/01/09 01:32:26;;;;;;;16.02;2.83;;;;;;;4.68;100.00;99822.97;5074048;28;20064;-50
2022/01/09 01:34:54;;;;;;;21.58;2.35;;;;;;;4.62;100.00;99816.22;5074731;28;20096;-50
2022/01/09 01:37:22;;;;;;;12.27;2.13;;;;;;;4.58;100.00;99801.53;5077108;28;20053;-48
2022/01/09 01:39:51;;;;;;;11.60;1.63;;;;;;;4.42;100.00;99794.41;5077854;28;20504;-50
2022/01/09 01:42:21;;;;;;;14.88;1.98;;;;;;;4.37;100.00;99785.91;5078112;28;20412;-51
2022/01/09 01:44:50;;;;;;;10.20;2.13;;;;;;;4.28;100.00;99786.31;5077522;28;20531;-49
2022/01/09 01:47:20;;;;;;;16.42;4.05;;;;;;;4.07;100.00;99781.16;5078106;28;20423;-50
2022/01/09 01:49:49;;;;;;;19.95;2.58;;;;;;;4.00;100.00;99769.25;5078235;28;20092;-51
2022/01/09 01:52:26;;;;;;;21.58;2.95;;;;;;;3.91;100.00;99793.28;5077825;28;20059;-50
2022/01/09 01:54:54;;;;;;;11.07;2.28;;;;;;;3.85;100.00;99801.44;5078180;28;20056;-51
2022/01/09 01:57:24;;;;;;;12.48;2.03;;;;;;;3.99;100.00;99811.31;5078112;28;20408;-50
2022/01/09 01:59:52;;;;;;;15.32;2.30;;;;;;;4.07;100.00;99819.69;5077468;28;20056;-50
2022/01/09 02:02:22;;;;;;;13.23;3.00;;;;;;;4.22;100.00;99825.97;5077958;28;20064;-50
2022/01/09 02:04:50;;;;;;;16.77;1.95;;;;;;;4.24;100.00;99826.78;5077940;28;20052;-50
2022/01/09 02:07:18;;;;;;;14.57;1.52;;;;;;;4.37;100.00;99832.28;5077613;28;20053;-49
2022/01/09 02:09:47;;;;;;;13.77;2.70;;;;;;;4.36;100.00;99831.44;5077053;28;20065;-48
2022/01/09 02:12:15;;;;;;;15.82;2.08;;;;;;;4.44;100.00;99844.22;5077425;28;20067;-49
2022/01/09 02:14:47;;;;;;;17.65;2.47;;;;;;;4.45;100.00;99836.28;5076944;28;20049;-50
2022/01/09 02:17:18;;;;;;;13.40;2.33;;;;;;;4.49;100.00;99831.72;5077439;28;20048;-50
2022/01/09 02:19:52;;;;;;;23.95;2.35;;;;;;;4.51;100.00;99842.16;5076712;28;20526;-50
2022/01/09 02:22:21;;;;;;;9.30;1.95;;;;;;;4.43;100.00;99843.34;5076784;28;20063;-50
2022/01/09 02:24:49;;;;;;;18.58;2.08;;;;;;;4.44;100.00;99855.56;5077677;28;20056;-50
2022/01/09 02:27:18;;;;;;;10.05;2.13;;;;;;;4.49;100.00;99857.13;5076983;28;20053;-51
2022/01/09 02:29:47;;;;;;;14.63;2.00;;;;;;;4.53;100.00;99863.94;5077714;28;20052;-48
2022/01/09 02:32:16;;;;;;;9.20;2.38;;;;;;;4.47;100.00;99855.44;5076783;28;20063;-49
2022/01/09 02:34:47;;;;;;;7.65;1.42;;;;;;;4.55;100.00;99856.84;5077935;28;20106;-49
2022/01/09 02:37:17;;;;;;;13.85;1.80;;;;;;;4.51;100.00;99839.53;5076569;28;20062;-50
2022/01/09 02:39:45;;;;;;;10.35;1.60;;;;;;;4.44;100.00;99834.56;5077026;28;20059;-50
2022/01/09 02:42:20;;;;;;;14.68;2.00;;;;;;;4.46;100.00;99811.69;5076994;28;20389;-50
2022/01/09 02:44:48;;;;;;;16.35;1.77;;;;;;;4.47;100.00;99810.78;5076479;28;20052;-49
2022/01/09 02:47:17;;;;;;;8.82;1.73;;;;;;;4.47;100.00;99818.66;5077739;28;20063;-48
2022/01/09 02:49:48;;;;;;;9.68;1.35;;;;;;;4.45;100.00;99823.16;5076563;28;20056;-51
2022/01/09 02:52:30;;;;;;;10.38;2.25;;;;;;;4.46;100.00;99837.97;5076249;28;20052;-51
2022/01/09 02:55:12;;;;;;;13.60;2.13;;;;;;;4.50;100.00;99853.59;5077623;28;20416;-51
2022/01/09 02:57:41;;;;;;;21.35;2.58;;;;;;;4.45;100.00;99866.94;5076179;28;20052;-50
2022/01/09 03:00:11;;;;;;;18.17;3.30;;;;;;;4.51;100.00;99876.31;5076660;28;20395;-50
2022/01/09 03:02:39;;;;;;;24.50;2.78;;;;;;;4.59;100.00;99879.41;5076976;28;20064;-48
2022/01/09 03:05:08;;;;;;;10.35;1.33;;;;;;;4.58;100.00;99854.91;5076020;28;20059;-49
2022/01/09 03:07:39;;;;;;;11.45;1.83;;;;;;;4.58;100.00;99846.19;5076536;28;20053;-50
2022/01/09 03:10:08;;;;;;;16.98;2.38;;;;;;;4.57;100.00;99836.59;5076817;28;20053;-50
2022/01/09 03:12:37;;;;;;;12.90;2.80;;;;;;;4.57;100.00;99828.72;5076037;28;20504;-50
2022/01/09 03:15:06;;;;;;;13.52;1.88;;;;;;;4.55;100.00;99818.28;5076970;28;20063;-49
2022/01/09 03:17:34;;;;;;;12.93;1.88;;;;;;;4.51;100.00;99818.53;5076037;28;20527;-51
2022/01/09 03:20:04;;;;;;;12.90;2.13;;;;;;;4.38;100.00;99819.09;5075968;28;20135;-51
2022/01/09 03:22:33;;;;;;;11.88;1.70;;;;;;;4.34;100.00;99800.91;5076231;28;20488;-51
2022/01/09 03:25:02;;;;;;;9.38;1.52;;;;;;;4.20;100.00;99805.06;5075968;28;20056;-51
2022/01/09 03:27:31;;;;;;;10.00;1.67;;;;;;;4.22;100.00;99802.34;5076381;28;20057;-51
2022/01/09 03:29:59;;;;;;;7.43;1.50;;;;;;;4.21;100.00;99812.00;5076319;28;20052;-51
2022/01/09 03:32:27;;;;;;;8.63;1.35;;;;;;;4.26;100.00;99806.56;5076272;28;20067;-50
2022/01/09 03:34:55;;;;;;;10.15;1.95;;;;;;;4.29;100.00;99809.03;5075353;28;20060;-50
2022/01/09 03:37:23;;;;;;;11.85;2.10;;;;;;;4.30;100.00;99818.59;5075609;28;20059;-50
2022/01/09 03:39:53;;;;;;;9.48;1.70;;;;;;;4.20;100.00;99819.97;5075912;28;20089;-49
2022/01/09 03:42:22;;;;;;;9.27;2.15;;;;;;;4.20;100.00;99819.97;5075482;28;20071;-50
2022/01/09 03:44:51;;;;;;;12.13;1.58;;;;;;;4.16;100.00;99826.28;5076295;28;20053;-51
2022/01/09 03:47:19;;;;;;;10.73;1.50;;;;;;;4.26;100.00;99825.78;5075396;28;20058;-50
2022/01/09 03:49:47;;;;;;;13.00;1.80;;;;;;;4.28;100.00;99817.81;5075586;28;20064;-50
2022/01/09 03:52:15;;;;;;;10.13;1.45;;;;;;;4.35;100.00;99845.50;5075630;28;20067;-50
2022/01/09 03:54:43;;;;;;;14.38;1.75;;;;;;;4.47;100.00;99838.81;5076239;28;20053;-50
2022/01/09 03:57:12;;;;;;;17.05;2.30;;;;;;;4.55;100.00;99851.59;5075222;28;20052;-50
2022/01/09 03:59:42;;;;;;;18.75;2.58;;;;;;;4.65;100.00;99831.84;5074202;28;20416;-51
2022/01/09 04:02:10;;;;;;;15.82;1.88;;;;;;;4.60;100.00;99823.31;5075136;28;20056;-51
2022/01/09 04:04:38;;;;;;;11.32;1.65;;;;;;;4.52;100.00;99800.03;5074804;28;20056;-48
2022/01/09 04:07:07;;;;;;;8.63;1.42;;;;;;;4.38;100.00;99813.84;5075361;28;20479;-51
2022/01/09 04:09:39;;;;;;;11.88;1.63;;;;;;;4.26;100.00;99815.28;5075222;28;20057;-49
2022/01/09 04:12:15;;;;;;;16.90;1.88;;;;;;;4.23;100.00;99804.06;5074734;28;20131;-50
2022/01/09 04:14:46;;;;;;;24.98;2.35;;;;;;;4.19;100.00;99807.78;5075213;28;20052;-50
2022/01/09 04:17:20;;;;;;;14.18;2.10;;;;;;;4.08;100.00;99808.25;5075773;28;20400;-50
2022/01/09 04:19:48;;;;;;;11.93;1.80;;;;;;;4.02;100.00;99812.03;5074534;28;20052;-50
2022/01/09 04:22:17;;;;;;;10.05;1.42;;;;;;;3.98;100.00;99796.47;5074812;28;20056;-49
2022/01/09 04:24:45;;;;;;;14.15;2.25;;;;;;;3.91;100.00;99806.41;5074471;28;20067;-49
2022/01/09 04:27:14;;;;;;;12.70;2.08;;;;;;;3.98;100.00;99805.19;5074974;28;20052;-50
2022/01/09 04:29:42;;;;;;;13.50;2.33;;;;;;;3.96;100.00;99801.81;5074955;28;20049;-51
2022/01/09 04:32:12;;;;;;;12.90;1.90;;;;;;;3.95;100.00;99794.88;5074895;28;20063;-50
2022/01/09 04:34:40;;;;;;;16.17;3.50;;;;;;;3.96;100.00;99788.69;5074203;28;20135;-47
2022/01/09 04:37:09;;;;;;;7.53;1.40;;;;;;;3.84;100.00;99787.47;5074819;28;20109;-51
2022/01/09 04:39:37;;;;;;;11.93;1.38;;;;;;;3.82;100.00;99785.84;5074709;28;20071;-49
2022/01/09 04:42:06;;;;;;;15.15;1.60;;;;;;;3.80;100.00;99779.81;5074712;28;20066;-50
2022/01/09 04:44:35;;;;;;;14.00;1.88;;;;;;;3.75;100.00;99784.41;5074159;28;20056;-51
2022/01/09 04:47:08;;;;;;;12.60;1.95;;;;;;;3.73;100.00;99787.09;5074697;28;20056;-50
2022/01/09 04:49:43;;;;;;;15.43;2.20;;;;;;;3.69;100.00;99780.31;5074325;28;20060;-51
2022/01/09 04:52:14;;;;;;;12.30;2.08;;;;;;;3.69;100.00;99777.69;5074925;28;20057;-50
2022/01/09 04:54:43;;;;;;;16.77;2.88;;;;;;;3.80;100.00;99762.31;5075096;28;20060;-50
2022/01/09 04:57:12;;;;;;;16.05;2.25;;;;;;;3.78;100.00;99755.41;5074262;28;20056;-50
2022/01/09 04:59:40;;;;;;;15.82;2.97;;;;;;;3.71;100.00;99760.09;5074192;28;20048;-50
2022/01/09 05:02:08;;;;;;;21.05;2.13;;;;;;;3.75;100.00;99766.03;5074463;28;20417;-50
2022/01/09 05:04:38;;;;;;;19.08;2.80;;;;;;;3.77;100.00;99772.09;5073918;28;20138;-50
2022/01/09 05:07:07;;;;;;;22.33;2.90;;;;;;;3.74;100.00;99764.38;5075032;28;20058;-51
2022/01/09 05:09:35;;;;;;;21.25;3.85;;;;;;;3.69;100.00;99768.03;5074942;28;20060;-50
2022/01/09 05:12:03;;;;;;;17.60;3.53;;;;;;;3.66;100.00;99767.31;5074083;28;20412;-49
2022/01/09 05:14:32;;;;;;;15.93;2.15;;;;;;;3.60;100.00;99763.22;5074328;28;20048;-51
2022/01/09 05:17:00;;;;;;;26.00;3.55;;;;;;;3.57;100.00;99768.59;5074845;28;20058;-50
2022/01/09 05:19:31;;;;;;;20.08;3.67;;;;;;;3.61;100.00;99767.53;5074295;28;20478;-50
2022/01/09 05:22:01;;;;;;;12.85;2.38;;;;;;;3.68;100.00;99771.59;5074684;28;20058;-50
2022/01/09 05:24:29;;;;;;;12.15;2.70;;;;;;;3.82;100.00;99783.22;5074825;28;20113;-50
2022/01/09 05:26:58;;;;;;;31.95;2.63;;;;;;;4.02;100.00;99796.28;5074555;28;20060;-49
2022/01/09 05:29:26;;;;;;;16.17;3.03;;;;;;;4.19;100.00;99797.28;5074763;28;20060;-51
2022/01/09 05:31:54;;;;;;;18.42;2.42;;;;;;;4.26;100.00;99789.00;5073895;28;20071;-50
2022/01/09 05:34:22;;;;;;;26.83;2.78;;;;;;;4.38;100.00;99781.47;5073963;28;20531;-51
2022/01/09 05:36:51;;;;;;;17.33;2.60;;;;;;;4.40;100.00;99777.84;5074697;28;20079;-49
2022/01/09 05:39:20;;;;;;;17.55;2.53;;;;;;;4.41;100.00;99776.94;5074663;28;20057;-50
2022/01/09 05:41:48;;;;;;;21.67;3.85;;;;;;;4.40;100.00;99774.38;5074085;28;20079;-50
2022/01/09 05:44:19;;;;;;;21.13;2.78;;;;;;;4.34;100.00;99770.28;5074406;28;20064;-48
2022/01/09 05:46:47;;;;;;;25.30;3.67;;;;;;;4.32;100.00;99777.38;5074665;28;20083;-50
2022/01/09 05:49:15;;;;;;;15.00;2.05;;;;;;;4.35;100.00;99797.38;5074233;28;20056;-51
2022/01/09 05:51:43;;;;;;;22.70;2.58;;;;;;;4.47;100.00;99797.66;5074054;28;20063;-51
2022/01/09 05:54:12;;;;;;;16.20;2.17;;;;;;;4.51;100.00;99808.03;5074187;28;20416;-50
2022/01/09 05:56:41;;;;;;;17.17;2.38;;;;;;;4.59;100.00;99811.09;5074484;28;20064;-50
2022/01/09 05:59:09;;;;;;;20.50;3.08;;;;;;;4.71;100.00;99815.78;5074331;28;20052;-51
2022/01/09 06:01:38;;;;;;;15.57;2.90;;;;;;;4.82;100.00;99810.84;5074432;28;20052;-49
2022/01/09 06:04:06;;;;;;;20.35;2.38;;;;;;;4.78;100.00;99819.81;5074789;28;20063;-50
2022/01/09 06:06:35;;;;;;;17.70;2.20;;;;;;;4.79;100.00;99828.53;5073558;28;20056;-50
2022/01/09 06:09:03;;;;;;;12.60;2.50;;;;;;;4.82;100.00;99792.47;5073805;28;20060;-50
2022/01/09 06:11:32;;;;;;;15.32;2.58;;;;;;;4.83;100.00;99799.41;5074930;28;20072;-49
2022/01/09 06:14:01;;;;;;;14.88;2.10;;;;;;;4.72;100.00;99790.34;5074353;28;20055;-49
2022/01/09 06:16:29;;;;;;;16.83;2.10;;;;;;;4.64;100.00;99777.59;5073702;28;20053;-50
2022/01/09 06:18:58;;;;;;;20.88;2.78;;;;;;;4.56;100.00;99774.50;5073993;28;20059;-50
2022/01/09 06:21:27;;;;;;;18.58;2.55;;;;;;;4.39;100.00;99778.78;5073421;28;20056;-51
2022/01/09 06:23:55;;;;;;;11.20;1.83;;;;;;;4.32;100.00;99777.38;5075452;28;20060;-49
2022/01/09 06:26:24;;;;;;;12.30;2.70;;;;;;;4.23;100.00;99773.41;5077483;28;20067;-50
2022/01/09 06:28:52;;;;;;;15.55;2.00;;;;;;;4.06;100.00;99776.81;5078102;28;20393;-50
2022/01/09 06:31:21;;;;;;;15.65;2.35;;;;;;;4.03;100.00;99782.22;5076919;28;20428;-49
2022/01/09 06:33:50;;;;;;;18.00;2.65;;;;;;;4.11;100.00;99788.91;5076907;28;20420;-51
2022/01/09 06:36:18;;;;;;;17.02;2.03;;;;;;;4.13;100.00;99790.50;5077627;28;20078;-49
2022/01/09 06:38:46;;;;;;;16.88;2.88;;;;;;;4.20;100.00;99791.09;5077530;28;20415;-50
2022/01/09 06:41:14;;;;;;;16.30;2.42;;;;;;;4.17;100.00;99783.34;5077002;28;20060;-50
2022/01/09 06:43:44;;;;;;;14.38;2.20;;;;;;;4.07;100.00;99781.16;5076993;28;20053;-50
2022/01/09 06:46:12;;;;;;;18.00;1.80;;;;;;;4.02;100.00;99777.06;5076955;28;20060;-48
2022/01/09 06:48:42;;;;;;;14.80;1.65;;;;;;;4.01;100.00;99778.81;5077729;28;20053;-53
2022/01/09 06:51:10;;;;;;;11.00;1.92;;;;;;;4.04;100.00;99783.09;5076568;28;20393;-52
2022/01/09 06:53:38;;;;;;;20.58;2.42;;;;;;;4.08;100.00;99769.75;5077141;28;20061;-53
2022/01/09 06:56:07;;;;;;;18.23;2.38;;;;;;;4.11;100.00;99773.16;5076395;28;20508;-51
2022/01/09 06:58:37;;;;;;;20.85;3.28;;;;;;;4.15;100.00;99769.44;5076733;28;20078;-53
2022/01/09 07:01:05;;;;;;;13.43;2.00;;;;;;;4.10;100.00;99769.66;5076980;28;20059;-52
2022/01/09 07:03:33;;;;;;;19.30;2.55;;;;;;;4.09;100.00;99787.19;5076086;28;20070;-51
2022/01/09 07:06:03;;;;;;;13.15;2.47;;;;;;;4.25;100.00;99796.97;5076290;28;20531;-52
2022/01/09 07:08:33;;;;;;;11.25;1.77;;;;;;;4.25;100.00;99803.09;5076405;28;20069;-53
2022/01/09 07:11:02;;;;;;;10.07;2.22;;;;;;;4.39;100.00;99828.69;5077111;28;20064;-50
2022/01/09 07:13:30;;;;;;;19.58;2.90;;;;;;;4.49;100.00;99804.59;5075871;28;20071;-49
2022/01/09 07:15:59;;;;;;;19.27;2.30;;;;;;;4.57;100.00;99797.19;5076229;28;20535;-48
2022/01/09 07:18:27;;;;;;;22.77;3.75;;;;;;;4.57;100.00;99781.44;5076049;28;20056;-50
2022/01/09 07:20:55;;;;;;;18.75;2.42;;;;;;;4.53;100.00;99785.16;5076287;28;20523;-51
2022/01/09 07:23:25;;;;;;;15.63;2.88;;;;;;;4.49;100.00;99778.31;5076305;28;20083;-51
2022/01/09 07:25:53;;;;;;;17.00;2.17;;;;;;;4.39;100.00;99778.78;5075634;28;20075;-48
2022/01/09 07:28:21;;;;;;;10.63;2.17;;;;;;;4.31;100.00;99780.94;5076418;28;20057;-48
2022/01/09 07:30:50;;;;;;;21.65;3.20;;;;;;;4.33;100.00;99778.22;5076116;28;20079;-51
2022/01/09 07:33:18;;;;;;;19.92;2.75;;;;;;;4.22;100.00;99774.34;5075737;28;20052;-50
2022/01/09 07:35:46;;;;;;;18.52;2.45;;;;;;;4.07;100.00;99794.28;5076066;28;20059;-51
2022/01/09 07:38:14;;;;;;;21.30;2.95;;;;;;;3.99;100.00;99775.41;5075735;28;20071;-51
2022/01/09 07:40:44;;;;;;;17.98;2.28;;;;;;;4.08;100.00;99789.88;5076710;28;20078;-53
2022/01/09 07:43:12;;;;;;;19.23;2.25;;;;;;;4.06;100.00;99796.97;5076671;28;20413;-53
2022/01/09 07:45:41;;;;;;;17.83;2.30;;;;;;;4.12;100.00;99804.59;5075240;28;20063;-52
2022/01/09 07:48:09;;;;;;;29.30;2.80;;;;;;;4.25;100.00;99815.34;5076268;28;20059;-51
2022/01/09 07:50:37;;;;;;;23.70;3.85;;;;;;;4.34;100.00;99822.81;5076467;28;20064;-53
2022/01/09 07:53:06;;;;;;;20.58;3.65;;;;;;;4.40;100.00;99847.91;5075328;28;20056;-53
2022/01/09 07:55:34;;;;;;;21.88;3.67;;;;;;;4.47;100.00;99844.06;5075014;28;20507;-52
2022/01/09 07:58:03;;;;;;;17.70;2.80;;;;;;;4.46;100.00;99837.97;5075546;28;20052;-53
2022/01/09 08:00:32;;;;;;;13.73;3.15;;;;;;;4.55;100.00;99830.56;5076326;28;20060;-52
2022/01/09 08:03:00;;;;;;;25.60;2.83;;;;;;;4.61;100.00;99819.78;5075131;28;20059;-53
2022/01/09 08:05:28;;;;;;;13.07;2.72;;;;;;;4.68;100.00;99830.84;5075721;28;20056;-53
2022/01/09 08:07:57;;;;;;;19.70;2.38;;;;;;;4.74;100.00;99836.66;5075277;28;20066;-52
2022/01/09 08:10:25;;;;;;;23.75;4.45;;;;;;;4.71;100.00;99844.69;5074771;28;20053;-52
2022/01/09 08:12:53;;;;;;;14.73;3.47;;;;;;;4.74;100.00;99841.03;5075268;28;20052;-50
2022/01/09 08:15:23;;;;;;;25.52;3.08;;;;;;;4.69;100.00;99832.53;5075462;28;20415;-50
2022/01/09 08:17:53;;;;;;;14.57;2.95;;;;;;;4.66;100.00;99828.28;5074853;28;20052;-50
2022/01/09 08:20:22;;;;;;;19.65;3.05;;;;;;;4.56;100.00;99827.88;5074573;28;20523;-50
2022/01/09 08:22:50;;;;;;;12.32;2.88;;;;;;;4.45;100.00;99827.53;5075142;28;20071;-50
2022/01/09 08:25:19;;;;;;;21.08;3.35;;;;;;;4.34;100.00;99830.69;5075631;28;20063;-51
2022/01/09 08:27:48;;;;;;;18.50;3.13;;;;;;;4.32;100.00;99834.28;5075199;28;20083;-50
2022/01/09 08:30:18;;;;;;;16.70;2.90;;;;;;;4.34;100.00;99843.81;5074665;28;20086;-50
2022/01/09 08:32:48;;;;;;;15.00;2.75;;;;;;;4.43;100.00;99851.25;5074942;28;20071;-50
2022/01/09 08:35:16;;;;;;;17.05;2.95;;;;;;;4.51;100.00;99887.66;5075222;28;20090;-50
2022/01/09 08:37:45;;;;;;;19.30;3.78;;;;;;;4.56;100.00;99859.41;5074712;28;20056;-49
2022/01/09 08:40:17;;;;;;;25.75;3.63;;;;;;;4.71;100.00;99855.19;5074748;28;20063;-48
2022/01/09 08:42:45;;;;;;;20.63;3.72;;;;;;;4.74;100.00;99873.44;5075271;28;20118;-48
2022/01/09 08:45:14;;;;;;;26.98;4.72;;;;;;;4.80;100.00;99886.25;5074206;28;20057;-50
2022/01/09 08:47:43;;;;;;;25.88;4.07;;;;;;;4.93;100.00;99883.91;5074077;28;20428;-51
2022/01/09 08:50:15;;;;;;;17.52;3.25;;;;;;;4.98;100.00;99887.16;5074380;28;20573;-53
2022/01/09 08:52:43;;;;;;;20.92;3.45;;;;;;;5.02;100.00;99893.09;5074897;28;20083;-51
2022/01/09 08:55:14;;;;;;;18.33;2.60;;;;;;;5.05;100.00;99900.00;5075228;28;20099;-52
2022/01/09 08:57:42;;;;;;;25.10;3.42;;;;;;;5.03;100.00;99906.19;5074457;28;20060;-51
2022/01/09 09:00:12;;;;;;;24.10;3.25;;;;;;;5.03;100.00;99879.06;5074224;28;20512;-52
2022/01/09 09:02:41;;;;;;;25.80;3.70;;;;;;;5.03;100.00;99877.25;5074452;28;20512;-52
2022/01/09 09:05:09;;;;;;;22.13;3.03;;;;;;;4.95;100.00;99871.53;5074966;28;20427;-52
2022/01/09 09:07:39;;;;;;;16.17;2.83;;;;;;;5.00;100.00;99876.56;5074141;28;20057;-50
2022/01/09 09:10:09;;;;;;;18.50;3.42;;;;;;;5.01;100.00;99875.66;5075219;28;20428;-51
2022/01/09 09:12:37;;;;;;;16.02;3.20;;;;;;;5.06;100.00;99878.91;5074955;28;20056;-52
2022/01/09 09:15:07;;;;;;;23.13;2.95;;;;;;;5.31;100.00;99877.66;5074151;28;20056;-50
2022/01/09 09:17:35;;;;;;;20.58;3.13;;;;;;;5.66;100.00;99877.66;5074112;28;20056;-52
2022/01/09 09:20:05;;;;;;;17.60;3.28;;;;;;;6.17;100.00;99878.50;5073991;28;20110;-52
2022/01/09 09:22:33;;;;;;;16.75;3.33;;;;;;;6.55;100.00;99872.91;5074561;28;20420;-52
2022/01/09 09:25:03;;;;;;;11.75;2.42;;;;;;;6.96;100.00;99867.09;5074359;28;20056;-52
2022/01/09 09:27:32;;;;;;;17.20;2.83;;;;;;;7.22;100.00;99867.38;5075346;28;20400;-51
2022/01/09 09:30:02;;;;;;;10.90;2.65;;;;;;;7.29;100.00;99863.44;5074994;28;20069;-50
2022/01/09 09:32:30;;;;;;;16.33;2.53;;;;;;;7.53;100.00;99866.44;5074554;28;20131;-50
2022/01/09 09:34:59;;;;;;;19.95;2.95;;;;;;;7.72;100.00;99866.16;5074765;28;20095;-50
2022/01/09 09:37:28;;;;;;;17.42;2.80;;;;;;;7.78;100.00;99870.22;5073774;28;20057;-50
2022/01/09 09:39:56;;;;;;;15.38;2.60;;;;;;;7.79;100.00;99880.69;5073798;28;20057;-50
2022/01/09 09:42:26;;;;;;;10.18;2.42;;;;;;;7.81;100.00;99876.16;5074660;28;20082;-50
2022/01/09 09:45:00;;;;;;;11.43;2.25;;;;;;;7.97;100.00;99872.59;5073682;28;20061;-53
2022/01/09 09:47:29;;;;;;;9.57;2.20;;;;;;;7.92;99.52;99877.31;5073766;28;20061;-48
2022/01/09 09:49:57;;;;;;;15.40;3.53;;;;;;;7.68;100.00;99885.75;5074032;28;20052;-49
2022/01/09 09:52:25;;;;;;;11.70;2.33;;;;;;;7.45;100.00;99889.78;5073952;28;20056;-48
2022/01/09 09:54:54;;;;;;;8.80;1.73;;;;;;;7.27;100.00;99891.69;5073379;28;20060;-51
2022/01/09 09:57:23;;;;;;;9.77;2.05;;;;;;;7.12;100.00;99885.53;5073502;28;20060;-52
2022/01/09 10:00:00;;;;;;;13.75;3.03;;;;;;;7.11;100.00;99888.25;5077880;28;20415;-52
2022/01/09 10:02:41;;;;;;;16.10;3.25;;;;;;;7.23;100.00;99885.75;5078468;28;20059;-50
2022/01/09 10:05:10;;;;;;;16.47;2.77;;;;;;;7.49;100.00;99879.88;5078001;28;20057;-53
2022/01/09 10:07:38;;;;;;;11.25;3.75;;;;;;;7.66;100.00;99877.09;5077613;28;20122;-53
2022/01/09 10:10:09;;;;;;;22.77;2.97;;;;;;;7.77;100.00;99873.81;5077638;28;20071;-53
2022/01/09 10:12:38;;;;;;;15.20;3.13;;;;;;;8.06;100.00;99866.75;5077019;28;20056;-52
2022/01/09 10:15:11;;;;;;;15.95;2.78;;;;;;;8.42;100.00;99864.53;5076955;28;20550;-52
2022/01/09 10:17:42;;;;;;;16.10;3.42;;;;;;;8.75;100.00;99872.13;5077698;28;20098;-52
2022/01/09 10:20:13;;;;;;;18.27;2.50;;;;;;;9.59;100.00;99867.50;5077746;28;20056;-49
2022/01/09 10:22:44;;;;;;;17.40;2.93;;;;;;;10.34;93.35;99867.59;5078264;28;20056;-48
2022/01/09 10:25:21;;;;;;;16.55;3.50;;;;;;;11.25;90.09;99870.72;5078135;28;20092;-49
2022/01/09 10:27:50;;;;;;;18.55;3.45;;;;;;;12.19;82.09;99872.38;5076949;28;20067;-49
2022/01/09 10:30:22;;;;;;;14.23;2.80;;;;;;;12.41;74.70;99887.47;5077990;28;20056;-48
2022/01/09 10:32:56;;;;;;;11.27;2.50;;;;;;;12.29;76.55;99887.59;5077500;28;20063;-50
2022/01/09 10:35:25;;;;;;;12.20;2.55;;;;;;;12.27;77.61;99880.59;5076570;28;20055;-48
2022/01/09 10:38:11;;;;;;;13.98;2.33;;;;;;;12.37;76.97;99893.16;5077058;28;20056;-49
2022/01/09 10:40:41;;;;;;;17.10;2.75;;;;;;;12.49;76.36;99892.19;5076464;28;20052;-48
2022/01/09 10:43:12;;;;;;;12.20;2.88;;;;;;;12.59;75.15;99884.28;5077493;28;20059;-48
2022/01/09 10:45:44;;;;;;;12.55;2.67;;;;;;;12.26;71.22;99883.38;5076927;28;20139;-48
2022/01/09 10:48:12;;;;;;;;;;;;;;;11.83;75.03;99898.16;5076784;28;20346;-49
2022/01/09 10:50:43;;;;;;;10.68;2.53;;;;;;;11.58;76.51;99901.00;5077644;28;19920;-50
2022/01/09 10:53:30;;;;;;;19.45;2.95;;;;;;;10.95;79.51;99910.03;5077120;28;20064;-51
2022/01/09 10:56:12;;;;;;;15.93;3.00;;;;;;;10.27;83.66;99944.94;5076781;28;20064;-52
2022/01/09 10:58:42;;;;;;;14.82;3.08;;;;;;;9.55;89.92;99951.59;5076108;28;20086;-48
2022/01/09 11:01:18;;;;;;;16.42;2.72;;;;;;;8.94;90.99;99927.31;5077740;28;20060;-52
2022/01/09 11:03:48;;;;;;;9.45;1.95;;;;;;;8.28;92.73;99934.09;5076924;28;20404;-52
2022/01/09 11:06:17;;;;;;;9.68;1.88;;;;;;;7.92;96.05;99948.63;5075981;28;20570;-50
2022/01/09 11:08:45;;;;;;;8.82;2.05;;;;;;;7.69;98.19;99945.53;5075739;28;20511;-51
2022/01/09 11:11:24;;;;;;;12.05;2.28;;;;;;;7.62;100.00;99928.38;5076152;28;20052;-53
2022/01/09 11:13:54;;;;;;;14.85;1.95;;;;;;;7.79;100.00;99909.72;5075841;28;20064;-53
2022/01/09 11:16:36;;;;;;;9.35;1.85;;;;;;;8.09;99.70;99894.78;5077195;28;20049;-53
2022/01/09 11:19:09;;;;;;;13.02;2.20;;;;;;;8.51;99.40;99891.25;5076585;28;20056;-53
2022/01/09 11:21:40;;;;;;;14.70;1.83;;;;;;;9.02;98.38;99895.09;5076503;28;20082;-52
2022/01/09 11:24:58;;;;;;;7.95;2.20;;;;;;;9.50;95.59;99890.16;5075670;28;20061;-53
2022/01/09 11:27:44;;;;;;;12.80;4.10;;;;;;;9.97;93.30;99895.78;5075814;28;20500;-49
2022/01/09 11:30:20;;;;;;;13.73;3.47;;;;;;;10.17;89.33;99902.34;5075717;28;20496;-50
2022/01/09 11:33:03;;;;;;;12.13;2.80;;;;;;;10.28;86.91;99897.13;5076631;28;20075;-50
2022/01/09 11:35:39;;;;;;;17.80;3.80;;;;;;;9.86;86.37;99902.66;5076816;28;20106;-53
2022/01/09 11:38:13;;;;;;;12.93;2.90;;;;;;;9.59;88.62;99900.09;5076708;28;20057;-48